Time;durP1;ratioP1;P1;durP2;ratioP2;P2;SDS_P1;SDS_P2;PMS_P1;PMS_P2;Temp;Humidity;BMP_temperature;BMP_pressure;BME280_temperature;BME280_humidity;BME280_pressure;Samples;Min_cycle;Max_cycle;Signal;HPM_P1;HPM_P2
2023/09/14 00:00:54;;;;;;;5.10;2.90;;;;;;;12.18;100.00;102304.03;4930336;29;20047;-74
2023/09/14 00:03:22;;;;;;;5.78;2.47;;;;;;;12.15;100.00;102301.31;4937148;28;20073;-75
2023/09/14 00:05:50;;;;;;;5.00;2.42;;;;;;;12.13;100.00;102303.03;4929389;29;20055;-75
2023/09/14 00:08:17;;;;;;;5.70;2.42;;;;;;;12.11;100.00;102310.03;4944345;28;20036;-75
2023/09/14 00:10:46;;;;;;;5.20;2.20;;;;;;;12.09;100.00;102305.59;4927753;29;20492;-74
2023/09/14 00:13:13;;;;;;;2.80;2.15;;;;;;;12.08;100.00;102310.88;4904649;28;20498;-76
2023/09/14 00:15:40;;;;;;;8.15;3.05;;;;;;;12.06;100.00;102315.22;4902271;29;20051;-74
2023/09/14 00:18:08;;;;;;;6.40;2.42;;;;;;;12.03;100.00;102309.91;4938423;28;20050;-75
2023/09/14 00:20:36;;;;;;;8.93;2.50;;;;;;;12.02;100.00;102310.75;4922880;29;20054;-74
2023/09/14 00:23:07;;;;;;;4.25;2.55;;;;;;;12.03;100.00;102309.91;4932104;29;20054;-74
2023/09/14 00:25:35;;;;;;;3.75;2.03;;;;;;;12.03;100.00;102316.06;4933123;29;20498;-75
2023/09/14 00:28:02;;;;;;;4.95;2.42;;;;;;;12.04;100.00;102322.22;4891213;29;20027;-74
2023/09/14 00:30:30;;;;;;;4.78;2.72;;;;;;;12.05;100.00;102318.75;4949749;29;20047;-74
2023/09/14 00:32:58;;;;;;;7.28;2.55;;;;;;;12.05;100.00;102310.81;4954478;28;20066;-74
2023/09/14 00:35:25;;;;;;;3.72;2.58;;;;;;;12.06;100.00;102312.56;4902832;28;23966;-74
2023/09/14 00:37:53;;;;;;;4.45;2.22;;;;;;;12.08;100.00;102311.78;4933377;29;20039;-74
2023/09/14 00:40:21;;;;;;;3.72;2.83;;;;;;;12.09;100.00;102318.81;4931183;29;20565;-75
2023/09/14 00:42:51;;;;;;;5.88;2.28;;;;;;;12.12;100.00;102317.09;4918899;28;20060;-74
2023/09/14 00:45:20;;;;;;;5.15;2.70;;;;;;;12.14;100.00;102312.75;4870971;28;20062;-73
2023/09/14 00:47:50;;;;;;;5.88;3.17;;;;;;;12.17;100.00;102318.09;4922531;29;20509;-75
2023/09/14 00:50:19;;;;;;;5.53;2.60;;;;;;;12.20;100.00;102320.81;4936402;28;20051;-75
2023/09/14 00:52:51;;;;;;;6.00;2.75;;;;;;;12.22;100.00;102314.69;4950489;28;20043;-75
2023/09/14 00:55:19;;;;;;;3.25;2.88;;;;;;;12.25;100.00;102319.16;4928436;29;20046;-75
2023/09/14 00:57:48;;;;;;;6.68;3.28;;;;;;;12.27;100.00;102317.44;4932886;29;20054;-74
2023/09/14 01:00:16;;;;;;;6.15;2.92;;;;;;;12.30;100.00;102317.47;4886397;29;20055;-74
2023/09/14 01:02:44;;;;;;;3.95;3.05;;;;;;;12.32;100.00;102320.16;4964297;28;20078;-74
2023/09/14 01:05:16;;;;;;;8.05;3.10;;;;;;;12.33;100.00;102322.81;4936754;29;20051;-74
2023/09/14 01:07:44;;;;;;;6.05;3.40;;;;;;;12.36;100.00;102321.97;4937906;28;20055;-75
2023/09/14 01:10:15;;;;;;;7.72;3.67;;;;;;;12.37;100.00;102315.84;4962437;28;20063;-73
2023/09/14 01:12:46;;;;;;;4.32;3.22;;;;;;;12.39;100.00;102322.94;4933593;29;20050;-75
2023/09/14 01:15:19;;;;;;;5.43;2.58;;;;;;;12.40;100.00;102316.81;4902072;28;20050;-75
2023/09/14 01:17:58;;;;;;;6.80;3.15;;;;;;;12.42;100.00;102317.72;4963059;28;20395;-74
2023/09/14 01:20:44;;;;;;;4.13;3.05;;;;;;;12.44;100.00;102316.00;4934828;28;20063;-74
2023/09/14 01:23:31;;;;;;;4.82;2.88;;;;;;;12.42;100.00;102309.78;4918080;29;20039;-75
2023/09/14 01:25:59;;;;;;;5.20;2.95;;;;;;;12.43;100.00;102323.88;4947089;28;20051;-74
2023/09/14 01:28:28;;;;;;;7.68;3.20;;;;;;;12.44;100.00;102323.03;4929588;29;20893;-74
2023/09/14 01:30:55;;;;;;;3.30;2.42;;;;;;;12.44;100.00;102309.81;4881798;29;20060;-74
2023/09/14 01:33:25;;;;;;;6.85;3.35;;;;;;;12.45;100.00;102317.75;4915487;28;20059;-74
2023/09/14 01:35:52;;;;;;;4.07;2.63;;;;;;;12.46;100.00;102316.03;4906074;29;20062;-74
2023/09/14 01:38:21;;;;;;;6.63;3.10;;;;;;;12.47;100.00;102321.31;4925110;28;20077;-74
2023/09/14 01:40:51;;;;;;;7.95;3.03;;;;;;;12.47;100.00;102317.78;4930819;29;20067;-74
2023/09/14 01:43:19;;;;;;;7.10;3.07;;;;;;;12.48;100.00;102309.00;4925290;29;20688;-74
2023/09/14 01:45:47;;;;;;;6.50;3.25;;;;;;;12.47;100.00;102305.47;4908476;29;20326;-74
2023/09/14 01:48:16;;;;;;;3.92;2.70;;;;;;;12.46;100.00;102311.63;4899651;29;20066;-74
2023/09/14 01:50:44;;;;;;;6.78;3.47;;;;;;;12.45;100.00;102312.47;4953105;28;20505;-74
2023/09/14 01:53:11;;;;;;;6.57;2.88;;;;;;;12.43;100.00;102305.38;4917776;29;20047;-73
2023/09/14 01:55:39;;;;;;;6.97;3.03;;;;;;;12.41;100.00;102305.34;4930572;29;20498;-75
2023/09/14 01:58:06;;;;;;;5.35;2.92;;;;;;;12.40;100.00;102297.38;4959645;28;20047;-74
2023/09/14 02:00:34;;;;;;;3.22;2.80;;;;;;;12.38;100.00;102299.13;4930322;29;20565;-75
2023/09/14 02:03:01;;;;;;;6.30;2.90;;;;;;;12.36;100.00;102307.03;4886401;29;20059;-75
2023/09/14 02:05:29;;;;;;;6.97;2.88;;;;;;;12.34;100.00;102289.34;4935868;29;20055;-74
2023/09/14 02:07:56;;;;;;;4.68;2.88;;;;;;;12.32;100.00;102289.31;4928086;28;21281;-75
2023/09/14 02:10:24;;;;;;;5.03;3.25;;;;;;;12.30;100.00;102285.75;4915600;29;20065;-75
2023/09/14 02:12:51;;;;;;;4.25;2.30;;;;;;;12.28;100.00;102283.06;4928983;29;20054;-73
2023/09/14 02:15:19;;;;;;;3.90;2.33;;;;;;;12.26;100.00;102287.44;4943818;29;20048;-74
2023/09/14 02:17:46;;;;;;;4.93;2.70;;;;;;;12.26;100.00;102292.72;4896214;29;20438;-73
2023/09/14 02:20:14;;;;;;;3.90;2.67;;;;;;;12.26;100.00;102283.91;4902120;29;20047;-73
2023/09/14 02:22:42;;;;;;;6.25;2.75;;;;;;;12.25;100.00;102287.44;4927901;29;20078;-74
2023/09/14 02:25:09;;;;;;;3.50;2.55;;;;;;;12.22;100.00;102288.25;4935058;29;20051;-75
2023/09/14 02:27:37;;;;;;;5.05;2.70;;;;;;;12.22;100.00;102295.28;4944644;28;20407;-74
2023/09/14 02:30:05;;;;;;;4.00;2.55;;;;;;;12.21;100.00;102296.13;4923235;29;20058;-74
2023/09/14 02:32:32;;;;;;;4.93;2.58;;;;;;;12.21;100.00;102293.50;4883636;28;20086;-73
2023/09/14 02:35:00;;;;;;;4.32;2.60;;;;;;;12.21;100.00;102289.13;4954511;28;20043;-74
2023/09/14 02:37:28;;;;;;;5.10;2.70;;;;;;;12.21;100.00;102296.13;4920525;29;20513;-74
2023/09/14 02:39:57;;;;;;;4.18;2.72;;;;;;;12.22;100.00;102288.25;4917790;29;20066;-75
2023/09/14 02:42:25;;;;;;;5.07;2.42;;;;;;;12.23;100.00;102290.03;4916756;29;20039;-74
2023/09/14 02:44:52;;;;;;;4.88;2.58;;;;;;;12.24;100.00;102293.56;4959959;28;20067;-74
2023/09/14 02:47:20;;;;;;;6.53;2.80;;;;;;;12.24;100.00;102289.16;4931290;28;20124;-74
2023/09/14 02:49:47;;;;;;;2.72;2.53;;;;;;;12.26;100.00;102292.72;4902833;28;20039;-74
2023/09/14 02:52:15;;;;;;;3.92;2.75;;;;;;;12.27;100.00;102293.63;4939846;28;20035;-74
2023/09/14 02:54:42;;;;;;;4.45;3.28;;;;;;;12.28;100.00;102293.66;4960120;28;20058;-74
2023/09/14 02:57:09;;;;;;;5.50;2.67;;;;;;;12.29;100.00;102294.56;4951333;28;20395;-74
2023/09/14 02:59:37;;;;;;;5.03;2.38;;;;;;;12.30;100.00;102288.41;4945951;29;20039;-75
2023/09/14 03:02:04;;;;;;;4.70;2.55;;;;;;;12.31;100.00;102286.66;4930065;29;20047;-74
2023/09/14 03:04:31;;;;;;;3.58;2.22;;;;;;;12.30;100.00;102285.75;4885687;29;20446;-75
2023/09/14 03:06:59;;;;;;;3.60;2.90;;;;;;;12.30;100.00;102285.75;4919551;29;21198;-74
2023/09/14 03:09:28;;;;;;;10.73;2.65;;;;;;;12.29;100.00;102286.63;4947861;29;20046;-74
2023/09/14 03:11:56;;;;;;;4.80;2.65;;;;;;;12.27;100.00;102286.59;4926977;29;20059;-75
2023/09/14 03:14:23;;;;;;;3.38;2.38;;;;;;;12.26;100.00;102278.63;4931084;28;20437;-74
2023/09/14 03:16:51;;;;;;;3.80;3.38;;;;;;;12.25;100.00;102284.78;4944884;28;20051;-74
2023/09/14 03:19:21;;;;;;;3.85;2.75;;;;;;;12.22;100.00;102284.72;4890143;29;20046;-74
2023/09/14 03:21:48;;;;;;;4.95;2.63;;;;;;;12.19;100.00;102276.72;4911688;29;20043;-74
2023/09/14 03:24:16;;;;;;;4.10;2.60;;;;;;;12.17;100.00;102283.75;4886297;29;20077;-74
2023/09/14 03:26:45;;;;;;;4.38;2.60;;;;;;;12.13;100.00;102282.78;4946092;28;20043;-74
2023/09/14 03:29:13;;;;;;;5.80;3.45;;;;;;;12.08;100.00;102273.91;4946658;28;20047;-74
2023/09/14 03:31:40;;;;;;;4.13;2.92;;;;;;;12.05;100.00;102285.28;4944266;28;20051;-74
2023/09/14 03:34:08;;;;;;;3.70;2.63;;;;;;;12.01;100.00;102298.41;4873096;29;20047;-74
2023/09/14 03:36:36;;;;;;;6.75;2.70;;;;;;;11.97;100.00;102286.88;4908792;29;20055;-73
2023/09/14 03:39:03;;;;;;;2.95;2.42;;;;;;;11.95;100.00;102287.72;4936295;29;20055;-74
2023/09/14 03:41:34;;;;;;;4.53;2.25;;;;;;;11.90;100.00;102287.59;4929475;29;20536;-73
2023/09/14 03:44:01;;;;;;;3.08;2.33;;;;;;;11.86;100.00;102289.25;4902460;28;20066;-74
2023/09/14 03:46:29;;;;;;;5.40;2.50;;;;;;;11.84;100.00;102292.75;4958871;28;20143;-74
2023/09/14 03:48:57;;;;;;;5.05;2.47;;;;;;;11.80;100.00;102293.53;4945062;29;20047;-74
2023/09/14 03:51:24;;;;;;;4.85;2.85;;;;;;;11.77;100.00;102298.75;4871907;29;20043;-73
2023/09/14 03:53:51;;;;;;;2.80;2.55;;;;;;;11.74;100.00;102289.00;4917170;29;20063;-74
2023/09/14 03:56:19;;;;;;;5.47;2.78;;;;;;;11.73;100.00;102292.50;4930155;29;20047;-74
2023/09/14 03:58:48;;;;;;;6.75;2.92;;;;;;;11.69;100.00;102288.00;4916951;29;20075;-74
2023/09/14 04:01:15;;;;;;;5.20;2.80;;;;;;;11.68;100.00;102287.13;4919777;29;20054;-74
2023/09/14 04:03:44;;;;;;;11.88;3.47;;;;;;;11.67;100.00;102285.34;4913211;29;20532;-75
2023/09/14 04:06:11;;;;;;;4.70;2.55;;;;;;;11.64;100.00;102287.91;4898396;28;20058;-74
2023/09/14 04:08:39;;;;;;;5.80;4.20;;;;;;;11.62;100.00;102286.97;4927052;29;20085;-74
2023/09/14 04:11:06;;;;;;;5.88;4.00;;;;;;;11.60;100.00;102286.06;4912070;29;20047;-73
2023/09/14 04:13:35;;;;;;;5.43;3.17;;;;;;;11.58;100.00;102297.44;4897999;29;20051;-74
2023/09/14 04:16:08;;;;;;;6.45;3.40;;;;;;;11.56;100.00;102294.78;4928177;28;20078;-74
2023/09/14 04:18:39;;;;;;;;;;;;;;;11.51;100.00;102291.13;4898421;29;20062;-73
2023/09/14 04:21:07;;;;;;;3.10;2.70;;;;;;;11.48;100.00;102294.59;4894316;28;19930;-74
2023/09/14 04:23:34;;;;;;;4.50;2.95;;;;;;;11.45;100.00;102289.25;4924815;29;20047;-74
2023/09/14 04:26:03;;;;;;;5.43;3.13;;;;;;;11.42;100.00;102293.59;4901032;29;20054;-74
2023/09/14 04:28:32;;;;;;;12.07;7.72;;;;;;;11.39;100.00;102293.50;4912954;29;20051;-74
2023/09/14 04:31:01;;;;;;;10.35;5.70;;;;;;;11.36;100.00;102288.16;4916680;29;20055;-73
2023/09/14 04:33:32;;;;;;;5.50;4.32;;;;;;;11.31;100.00;102288.94;4955119;28;20418;-73
2023/09/14 04:36:02;;;;;;;;;;;;;;;11.28;100.00;102295.88;4925732;29;20039;-74
2023/09/14 04:38:32;;;;;;;5.93;3.17;;;;;;;11.26;100.00;102300.25;4884277;28;19947;-74
2023/09/14 04:41:04;;;;;;;6.75;3.20;;;;;;;11.24;100.00;102294.03;4930439;28;20065;-74
2023/09/14 04:43:33;;;;;;;3.80;2.72;;;;;;;11.21;100.00;102305.41;4907295;29;20507;-74
2023/09/14 04:46:01;;;;;;;6.55;2.78;;;;;;;11.18;100.00;102294.78;4904210;29;20054;-74
2023/09/14 04:48:29;;;;;;;3.40;2.90;;;;;;;11.17;100.00;102305.28;4927519;29;20075;-74
2023/09/14 04:50:58;;;;;;;3.75;3.05;;;;;;;11.15;100.00;102309.66;4922298;29;20042;-74
2023/09/14 04:53:26;;;;;;;5.60;3.20;;;;;;;11.14;100.00;102319.31;4852017;29;20060;-74
2023/09/14 04:55:54;;;;;;;6.22;2.85;;;;;;;11.11;100.00;102314.88;4937459;28;20063;-74
2023/09/14 04:58:22;;;;;;;6.07;3.00;;;;;;;11.11;100.00;102313.94;4910970;29;20058;-77
2023/09/14 05:00:53;;;;;;;8.32;2.95;;;;;;;11.10;100.00;102317.47;4887858;29;20058;-74
2023/09/14 05:03:21;;;;;;;3.65;2.80;;;;;;;11.08;100.00;102322.69;4894868;29;20047;-73
2023/09/14 05:05:54;;;;;;;2.90;2.50;;;;;;;11.07;100.00;102320.00;4914113;29;20051;-73
2023/09/14 05:08:22;;;;;;;4.72;2.72;;;;;;;11.05;100.00;102327.88;4880858;29;20062;-74
2023/09/14 05:10:53;;;;;;;5.35;2.97;;;;;;;11.07;100.00;102325.28;4888724;29;20048;-74
2023/09/14 05:13:23;;;;;;;5.47;3.20;;;;;;;11.07;100.00;102335.84;4875501;29;20507;-74
2023/09/14 05:15:51;;;;;;;5.60;3.47;;;;;;;11.09;100.00;102334.13;4887812;29;20059;-73
2023/09/14 05:18:25;;;;;;;3.38;2.97;;;;;;;11.09;100.00;102332.38;4907170;29;20055;-74
2023/09/14 05:20:53;;;;;;;6.30;3.28;;;;;;;11.10;100.00;102339.44;4912989;29;20060;-74
2023/09/14 05:23:20;;;;;;;13.77;3.20;;;;;;;11.13;100.00;102335.97;4871125;29;20044;-75
2023/09/14 05:25:49;;;;;;;5.60;2.95;;;;;;;11.14;100.00;102331.63;4922506;29;20414;-74
2023/09/14 05:28:17;;;;;;;6.18;3.17;;;;;;;11.16;100.00;102330.78;4899125;29;20055;-76
2023/09/14 05:30:44;;;;;;;8.48;3.45;;;;;;;11.17;100.00;102322.03;4915575;28;20059;-73
2023/09/14 05:33:13;;;;;;;5.80;3.10;;;;;;;11.19;100.00;102320.31;4879177;29;20063;-74
2023/09/14 05:35:43;;;;;;;9.00;3.13;;;;;;;11.25;100.00;102324.88;4922248;29;20052;-74
2023/09/14 05:38:11;;;;;;;5.33;3.23;;;;;;;11.28;100.00;102336.34;4862197;29;20056;-74
2023/09/14 05:40:40;;;;;;;3.70;3.10;;;;;;;11.31;100.00;102331.16;4916907;29;20055;-74
2023/09/14 05:43:07;;;;;;;4.78;3.33;;;;;;;11.35;100.00;102332.13;4902180;29;20056;-74
2023/09/14 05:45:35;;;;;;;3.15;2.95;;;;;;;11.40;100.00;102342.78;4910251;29;24488;-74
2023/09/14 05:48:05;;;;;;;6.88;2.85;;;;;;;11.42;100.00;102344.63;4931920;29;20055;-73
2023/09/14 05:50:35;;;;;;;3.67;3.30;;;;;;;11.46;100.00;102340.31;4923139;29;20043;-75
2023/09/14 05:53:05;;;;;;;3.95;3.00;;;;;;;11.49;100.00;102345.63;4940168;29;20497;-73
2023/09/14 05:55:32;;;;;;;3.80;3.13;;;;;;;11.54;100.00;102341.38;4864646;29;20055;-73
2023/09/14 05:58:00;;;;;;;3.25;2.95;;;;;;;11.58;100.00;102347.63;4921704;29;20056;-73
2023/09/14 06:00:28;;;;;;;7.78;3.00;;;;;;;11.63;100.00;102348.63;4885352;29;20062;-75
2023/09/14 06:02:58;;;;;;;4.63;2.85;;;;;;;11.68;100.00;102342.59;4891918;29;20047;-74
2023/09/14 06:05:26;;;;;;;7.13;3.45;;;;;;;11.75;100.00;102338.31;4911126;29;20039;-74
2023/09/14 06:07:54;;;;;;;5.97;2.90;;;;;;;11.80;100.00;102347.25;4928618;29;20051;-74
2023/09/14 06:10:23;;;;;;;4.37;2.80;;;;;;;11.84;100.00;102342.91;4894835;29;20083;-75
2023/09/14 06:12:51;;;;;;;3.88;2.70;;;;;;;11.88;100.00;102347.41;4879196;29;20327;-74
2023/09/14 06:15:19;;;;;;;5.03;3.00;;;;;;;11.92;100.00;102340.47;4912467;28;20043;-74
2023/09/14 06:17:47;;;;;;;4.95;2.70;;;;;;;11.96;100.00;102348.47;4926041;28;20051;-75
2023/09/14 06:20:15;;;;;;;5.78;3.30;;;;;;;12.01;100.00;102353.88;4923026;29;20040;-73
2023/09/14 06:22:43;;;;;;;3.83;2.80;;;;;;;12.06;100.00;102346.94;4929278;29;20403;-73
2023/09/14 06:25:10;;;;;;;8.15;2.92;;;;;;;12.09;100.00;102347.88;4879732;29;20043;-73
2023/09/14 06:27:38;;;;;;;5.75;2.60;;;;;;;12.14;100.00;102353.28;4903289;29;20055;-73
2023/09/14 06:30:06;;;;;;;5.65;2.85;;;;;;;12.20;100.00;102355.16;4932282;28;20056;-74
2023/09/14 06:32:33;;;;;;;2.55;1.98;;;;;;;12.25;100.00;102354.41;4918233;28;20558;-74
2023/09/14 06:35:01;;;;;;;3.88;2.20;;;;;;;12.32;100.00;102351.88;4925543;28;20055;-74
2023/09/14 06:37:29;;;;;;;3.75;2.30;;;;;;;12.38;100.00;102354.63;4925092;29;20047;-74
2023/09/14 06:39:56;;;;;;;3.05;2.40;;;;;;;12.43;100.00;102352.97;4901463;29;20059;-74
2023/09/14 06:42:25;;;;;;;7.13;2.42;;;;;;;12.50;100.00;102354.00;4914317;28;20055;-74
2023/09/14 06:44:53;;;;;;;3.60;2.00;;;;;;;12.56;100.00;102346.19;4927085;28;20054;-74
2023/09/14 06:47:20;;;;;;;3.58;2.28;;;;;;;12.69;100.00;102353.47;4906338;29;20059;-75
2023/09/14 06:49:47;;;;;;;5.95;2.08;;;;;;;12.90;100.00;102350.31;4913971;28;20043;-75
2023/09/14 06:52:15;;;;;;;3.88;2.00;;;;;;;13.06;100.00;102351.47;4944072;28;20038;-75
2023/09/14 06:54:46;;;;;;;6.72;2.05;;;;;;;13.21;100.00;102354.38;4916733;28;20526;-75
2023/09/14 06:57:14;;;;;;;3.78;1.80;;;;;;;13.36;100.00;102356.41;4887343;29;20051;-74
2023/09/14 06:59:42;;;;;;;3.65;2.05;;;;;;;13.52;100.00;102359.31;4911563;29;20058;-75
2023/09/14 07:02:09;;;;;;;5.70;2.13;;;;;;;13.64;100.00;102362.13;4925634;28;20031;-75
2023/09/14 07:04:36;;;;;;;4.90;1.75;;;;;;;13.85;100.00;102369.47;4910600;28;20403;-77
2023/09/14 07:07:04;;;;;;;1.80;1.40;;;;;;;14.12;100.00;102368.06;4905891;29;20051;-75
2023/09/14 07:09:31;;;;;;;1.92;1.52;;;;;;;14.43;100.00;102370.22;4935546;29;20051;-74
2023/09/14 07:11:59;;;;;;;5.35;1.92;;;;;;;14.79;100.00;102368.88;4874265;28;22415;-75
2023/09/14 07:14:26;;;;;;;1.45;0.98;;;;;;;15.17;100.00;102370.09;4930031;28;20047;-75
2023/09/14 07:16:54;;;;;;;3.50;1.35;;;;;;;15.53;100.00;102368.63;4931857;28;20059;-75
2023/09/14 07:19:26;;;;;;;3.50;1.40;;;;;;;15.83;100.00;102365.28;4925903;29;20047;-75
2023/09/14 07:21:54;;;;;;;9.65;1.42;;;;;;;16.03;100.00;102367.16;4896411;29;20039;-75
2023/09/14 07:24:22;;;;;;;3.95;1.48;;;;;;;16.26;100.00;102356.63;4914498;29;20047;-75
2023/09/14 07:26:49;;;;;;;6.10;1.30;;;;;;;16.51;100.00;102362.91;4917634;29;20051;-75
2023/09/14 07:29:16;;;;;;;4.80;1.00;;;;;;;16.78;100.00;102356.75;4880478;29;20062;-75
2023/09/14 07:31:44;;;;;;;5.47;1.17;;;;;;;17.08;100.00;102361.25;4945834;28;20043;-74
2023/09/14 07:34:13;;;;;;;5.75;1.00;;;;;;;17.40;100.00;102357.69;4877944;29;20059;-75
2023/09/14 07:36:41;;;;;;;5.38;1.20;;;;;;;17.81;100.00;102364.72;4905680;29;20494;-75
2023/09/14 07:39:09;;;;;;;5.93;1.15;;;;;;;18.17;100.00;102361.97;4913685;29;20059;-75
2023/09/14 07:41:36;;;;;;;6.55;1.38;;;;;;;18.56;100.00;102367.97;4901494;29;20055;-76
2023/09/14 07:44:04;;;;;;;3.45;1.30;;;;;;;18.80;100.00;102370.53;4874488;29;20051;-75
2023/09/14 07:46:46;;;;;;;5.50;0.82;;;;;;;19.12;100.00;102366.72;4887477;29;20843;-76
2023/09/14 07:49:31;;;;;;;10.75;1.10;;;;;;;19.35;100.00;102371.84;4901016;29;20395;-75
2023/09/14 07:51:59;;;;;;;6.20;1.17;;;;;;;19.44;100.00;102368.22;4894674;29;20545;-75
2023/09/14 07:54:26;;;;;;;2.70;1.00;;;;;;;19.48;100.00;102377.97;4928155;29;20070;-75
2023/09/14 07:56:53;;;;;;;4.28;1.30;;;;;;;19.62;100.00;102384.09;4898837;29;20051;-75
2023/09/14 07:59:21;;;;;;;2.17;0.95;;;;;;;19.73;100.00;102385.78;4844232;29;20074;-75
2023/09/14 08:01:48;;;;;;;1.83;0.95;;;;;;;19.81;100.00;102387.50;4899864;29;20079;-75
2023/09/14 08:04:16;;;;;;;2.85;0.90;;;;;;;19.91;100.00;102384.72;4878233;29;20063;-75
2023/09/14 08:06:44;;;;;;;3.15;0.98;;;;;;;19.98;100.00;102384.63;4932959;29;20431;-75
2023/09/14 08:09:11;;;;;;;6.38;1.35;;;;;;;20.02;100.00;102389.03;4898748;29;20055;-75
2023/09/14 08:11:41;;;;;;;2.63;0.95;;;;;;;20.17;100.00;102382.63;4920020;29;20052;-74
2023/09/14 08:14:08;;;;;;;4.50;1.05;;;;;;;20.33;100.00;102383.28;4829782;29;20048;-74
2023/09/14 08:16:35;;;;;;;2.72;1.15;;;;;;;20.52;100.00;102388.41;4909002;29;20059;-74
2023/09/14 08:19:03;;;;;;;3.45;0.93;;;;;;;20.46;99.70;102389.38;4912764;29;20912;-74
2023/09/14 08:21:31;;;;;;;2.80;1.13;;;;;;;20.37;99.05;102390.38;4924898;29;20051;-76
2023/09/14 08:23:58;;;;;;;3.00;1.05;;;;;;;20.47;98.72;102392.94;4862958;29;20059;-75
2023/09/14 08:26:25;;;;;;;4.60;1.40;;;;;;;20.46;96.96;102400.09;4907735;29;20048;-74
2023/09/14 08:28:53;;;;;;;2.65;0.90;;;;;;;20.32;94.56;102396.69;4894338;29;20062;-74
2023/09/14 08:31:21;;;;;;;3.75;0.88;;;;;;;20.00;93.46;102400.63;4854657;29;20048;-75
2023/09/14 08:33:49;;;;;;;4.75;1.30;;;;;;;19.69;92.99;102395.59;4902758;29;20058;-75
2023/09/14 08:36:16;;;;;;;1.98;1.05;;;;;;;19.36;92.81;102411.06;4947850;28;20054;-75
2023/09/14 08:38:44;;;;;;;4.65;1.33;;;;;;;19.19;93.33;102413.00;4931987;29;20043;-75
2023/09/14 08:41:29;;;;;;;2.25;1.10;;;;;;;19.04;93.50;102412.19;4898185;28;20055;-75
2023/09/14 08:43:58;;;;;;;3.60;1.00;;;;;;;18.86;93.86;102418.53;4933403;29;20074;-76
2023/09/14 08:46:26;;;;;;;2.67;1.00;;;;;;;18.68;93.92;102415.97;4885113;29;20054;-75
2023/09/14 08:48:56;;;;;;;4.03;1.15;;;;;;;18.51;93.86;102410.72;4943908;29;20055;-74
2023/09/14 08:51:25;;;;;;;1.52;1.15;;;;;;;18.38;94.51;102409.00;4921767;29;20055;-74
2023/09/14 08:53:53;;;;;;;3.70;1.40;;;;;;;18.23;95.28;102405.50;4917341;29;20055;-74
2023/09/14 08:56:39;;;;;;;3.03;0.90;;;;;;;18.08;95.70;102400.22;4948868;29;20051;-74
2023/09/14 08:59:10;;;;;;;2.15;1.23;;;;;;;17.96;95.76;102400.25;4934240;28;20409;-75
2023/09/14 09:01:38;;;;;;;3.10;0.98;;;;;;;17.81;95.80;102403.84;4920921;29;20043;-74
2023/09/14 09:04:05;;;;;;;8.45;1.60;;;;;;;17.72;95.73;102397.59;4888179;29;20453;-75
2023/09/14 09:06:33;;;;;;;3.72;1.23;;;;;;;17.74;96.59;102401.16;4921029;29;20058;-74
2023/09/14 09:09:02;;;;;;;1.70;1.00;;;;;;;17.75;96.63;102396.72;4934393;29;22950;-75
2023/09/14 09:11:30;;;;;;;4.00;1.00;;;;;;;17.81;96.75;102401.16;4949053;28;20051;-76
2023/09/14 09:13:58;;;;;;;1.63;1.05;;;;;;;17.83;95.56;102396.72;4911949;29;20768;-76
2023/09/14 09:16:26;;;;;;;2.08;1.10;;;;;;;17.83;95.41;102388.72;4904909;29;20047;-76
2023/09/14 09:19:03;;;;;;;2.65;0.82;;;;;;;17.93;95.93;102393.16;4904285;28;20054;-76
2023/09/14 09:21:37;;;;;;;1.80;1.17;;;;;;;18.06;95.37;102391.34;4916512;29;20525;-76
2023/09/14 09:24:06;;;;;;;3.10;1.05;;;;;;;18.12;94.79;102383.31;4892791;29;20419;-76
2023/09/14 09:26:38;;;;;;;3.47;1.30;;;;;;;18.14;92.16;102392.19;4937691;28;20426;-75
2023/09/14 09:29:31;;;;;;;2.78;1.10;;;;;;;18.18;91.38;102382.41;4949910;28;20046;-76
2023/09/14 09:31:59;;;;;;;2.83;0.90;;;;;;;18.18;91.18;102383.28;4915285;28;20418;-76
2023/09/14 09:34:33;;;;;;;3.50;0.90;;;;;;;18.30;91.78;102380.56;4850021;29;20043;-76
2023/09/14 09:37:00;;;;;;;2.33;0.93;;;;;;;18.45;91.93;102386.72;4919499;28;20135;-76
2023/09/14 09:39:28;;;;;;;3.75;0.90;;;;;;;18.56;89.99;102386.66;4947784;29;20050;-76
2023/09/14 09:41:55;;;;;;;3.22;0.98;;;;;;;18.67;91.41;102384.81;4897598;28;20047;-76
2023/09/14 09:44:27;;;;;;;7.38;1.48;;;;;;;18.81;90.35;102383.00;4939743;29;20059;-75
2023/09/14 09:46:57;;;;;;;5.65;1.40;;;;;;;18.92;89.75;102376.66;4897041;29;20799;-75
2023/09/14 09:49:28;;;;;;;4.70;1.23;;;;;;;19.02;88.53;102371.25;4886338;29;20433;-75
2023/09/14 09:51:57;;;;;;;5.13;1.90;;;;;;;19.09;87.96;102369.41;4926769;29;20051;-75
2023/09/14 09:54:26;;;;;;;4.45;1.45;;;;;;;19.12;86.82;102369.41;4913573;29;20055;-75
2023/09/14 09:56:53;;;;;;;2.55;0.90;;;;;;;19.23;87.21;102369.31;4933173;28;20054;-75
2023/09/14 09:59:25;;;;;;;3.50;1.00;;;;;;;19.31;86.25;102378.13;4933061;29;20063;-74
2023/09/14 10:01:53;;;;;;;1.98;0.90;;;;;;;19.36;85.67;102378.13;4891693;28;20047;-75
2023/09/14 10:04:20;;;;;;;2.72;1.10;;;;;;;19.38;84.80;102368.28;4883338;29;20102;-76
2023/09/14 10:06:54;;;;;;;2.30;0.93;;;;;;;19.47;84.41;102368.22;4899912;29;21249;-74
2023/09/14 10:09:24;;;;;;;4.05;1.08;;;;;;;19.47;85.39;102369.09;4901315;29;20066;-74
2023/09/14 10:12:00;;;;;;;3.78;0.93;;;;;;;19.42;84.54;102376.25;4912953;29;20043;-75
2023/09/14 10:14:32;;;;;;;2.70;1.33;;;;;;;19.36;81.86;102376.31;4936001;29;20065;-75
2023/09/14 10:17:06;;;;;;;5.88;0.93;;;;;;;19.34;82.25;102370.09;4913975;29;20058;-74
2023/09/14 10:19:35;;;;;;;3.08;1.08;;;;;;;19.37;81.68;102370.06;4893795;28;20036;-74
2023/09/14 10:22:02;;;;;;;3.13;1.08;;;;;;;19.38;79.83;102371.84;4943959;28;20050;-75
2023/09/14 10:24:30;;;;;;;3.58;0.90;;;;;;;19.32;78.84;102379.94;4903254;29;20422;-75
2023/09/14 10:26:59;;;;;;;3.65;1.08;;;;;;;19.21;79.39;102376.47;4917611;28;20050;-75
2023/09/14 10:29:27;;;;;;;3.70;1.33;;;;;;;19.17;79.89;102380.94;4927611;29;20086;-76
2023/09/14 10:31:57;;;;;;;2.63;1.15;;;;;;;19.16;80.33;102373.81;4924883;29;20058;-75
2023/09/14 10:34:29;;;;;;;8.53;1.37;;;;;;;19.15;80.51;102377.41;4902059;28;20051;-75
2023/09/14 10:36:59;;;;;;;3.88;1.00;;;;;;;19.17;79.35;102380.03;4937139;29;20820;-76
2023/09/14 10:39:27;;;;;;;3.07;0.90;;;;;;;19.17;79.85;102385.38;4906134;29;20051;-75
2023/09/14 10:41:54;;;;;;;1.75;0.90;;;;;;;19.16;79.10;102373.81;4928080;29;20058;-76
2023/09/14 10:44:22;;;;;;;6.50;1.20;;;;;;;19.28;79.62;102368.38;4924537;29;20517;-75
2023/09/14 10:46:55;;;;;;;3.78;1.45;;;;;;;19.33;79.76;102370.09;4942604;28;20445;-74
2023/09/14 10:49:31;;;;;;;2.53;0.90;;;;;;;19.31;79.85;102371.91;4898973;29;20055;-77
2023/09/14 10:52:00;;;;;;;6.72;1.65;;;;;;;19.32;79.17;102379.94;4880959;29;20050;-76
2023/09/14 10:54:30;;;;;;;5.90;1.00;;;;;;;19.41;80.43;102377.19;4932382;28;20043;-76
2023/09/14 10:57:00;;;;;;;6.15;1.98;;;;;;;19.58;80.00;102370.75;4917222;29;20517;-76
2023/09/14 10:59:48;;;;;;;2.05;1.48;;;;;;;19.62;78.29;102377.84;4927945;29;20044;-75
2023/09/14 11:02:39;;;;;;;1.95;0.98;;;;;;;19.46;79.21;102378.00;4927718;29;20430;-76
2023/09/14 11:05:25;;;;;;;6.50;1.63;;;;;;;19.32;80.06;102371.00;4927755;28;20064;-76
2023/09/14 11:07:56;;;;;;;5.07;1.02;;;;;;;19.18;80.44;102369.34;4874824;29;20795;-76
2023/09/14 11:10:26;;;;;;;5.63;1.20;;;;;;;19.07;79.97;102363.19;4927778;28;20049;-76
2023/09/14 11:13:18;;;;;;;4.43;1.33;;;;;;;19.02;80.36;102363.25;4900694;29;20043;-76
2023/09/14 11:15:47;;;;;;;3.08;1.20;;;;;;;19.01;81.92;102360.56;4934379;29;20051;-74
2023/09/14 11:18:19;;;;;;;2.70;1.38;;;;;;;18.96;80.14;102360.63;4928667;29;20050;-75
2023/09/14 11:20:46;;;;;;;7.82;1.40;;;;;;;18.92;81.22;102358.84;4888240;29;20051;-75
2023/09/14 11:23:14;;;;;;;2.45;1.23;;;;;;;18.98;82.13;102353.50;4850350;29;20063;-75
2023/09/14 11:25:44;;;;;;;5.80;1.48;;;;;;;19.04;80.42;102358.78;4914285;29;20531;-75
2023/09/14 11:28:34;;;;;;;2.10;1.38;;;;;;;19.19;80.47;102347.06;4903041;29;20062;-75